sensor_id;sensor_type;location;lat;lon;timestamp;P1;durP1;ratioP1;P2;durP2;ratioP2
19569;SDS011;9931;51.458;7.256;2024-01-25T00:02:15;34.13;;;24.15;;
19569;SDS011;9931;51.458;7.256;2024-01-25T00:04:41;33.10;;;23.63;;
19569;SDS011;9931;51.458;7.256;2024-01-25T00:07:09;34.70;;;23.80;;
19569;SDS011;9931;51.458;7.256;2024-01-25T00:09:37;25.30;;;22.55;;
19569;SDS011;9931;51.458;7.256;2024-01-25T00:12:02;39.20;;;23.07;;
19569;SDS011;9931;51.458;7.256;2024-01-25T00:14:28;36.67;;;23.77;;
19569;SDS011;9931;51.458;7.256;2024-01-25T00:16:53;43.10;;;25.40;;
19569;SDS011;9931;51.458;7.256;2024-01-25T00:19:18;46.22;;;24.08;;
19569;SDS011;9931;51.458;7.256;2024-01-25T00:21:43;34.07;;;24.03;;
19569;SDS011;9931;51.458;7.256;2024-01-25T00:24:11;32.55;;;22.73;;
19569;SDS011;9931;51.458;7.256;2024-01-25T00:26:36;35.90;;;23.88;;
19569;SDS011;9931;51.458;7.256;2024-01-25T00:29:01;24.90;;;22.60;;
19569;SDS011;9931;51.458;7.256;2024-01-25T00:31:27;41.57;;;23.03;;
19569;SDS011;9931;51.458;7.256;2024-01-25T00:33:52;40.58;;;25.08;;
19569;SDS011;9931;51.458;7.256;2024-01-25T00:36:17;37.75;;;24.98;;
19569;SDS011;9931;51.458;7.256;2024-01-25T00:38:42;35.42;;;25.17;;
19569;SDS011;9931;51.458;7.256;2024-01-25T00:41:08;52.90;;;26.13;;
19569;SDS011;9931;51.458;7.256;2024-01-25T00:43:34;26.17;;;23.88;;
19569;SDS011;9931;51.458;7.256;2024-01-25T00:45:59;40.45;;;24.10;;
19569;SDS011;9931;51.458;7.256;2024-01-25T00:48:24;37.95;;;24.70;;
19569;SDS011;9931;51.458;7.256;2024-01-25T00:50:50;25.50;;;23.27;;
19569;SDS011;9931;51.458;7.256;2024-01-25T00:53:15;36.13;;;24.38;;
19569;SDS011;9931;51.458;7.256;2024-01-25T00:55:40;31.50;;;23.92;;
19569;SDS011;9931;51.458;7.256;2024-01-25T00:58:06;35.55;;;23.77;;
19569;SDS011;9931;51.458;7.256;2024-01-25T01:00:31;50.88;;;24.10;;
19569;SDS011;9931;51.458;7.256;2024-01-25T01:02:57;32.50;;;23.55;;
19569;SDS011;9931;51.458;7.256;2024-01-25T01:05:22;30.63;;;23.10;;
19569;SDS011;9931;51.458;7.256;2024-01-25T01:07:48;67.85;;;25.45;;
19569;SDS011;9931;51.458;7.256;2024-01-25T01:10:13;29.17;;;22.52;;
19569;SDS011;9931;51.458;7.256;2024-01-25T01:12:39;35.67;;;22.48;;
19569;SDS011;9931;51.458;7.256;2024-01-25T01:15:04;35.90;;;21.10;;
19569;SDS011;9931;51.458;7.256;2024-01-25T01:17:29;34.17;;;22.30;;
19569;SDS011;9931;51.458;7.256;2024-01-25T01:19:55;29.83;;;21.70;;
19569;SDS011;9931;51.458;7.256;2024-01-25T01:22:20;43.08;;;31.38;;
19569;SDS011;9931;51.458;7.256;2024-01-25T01:24:45;41.10;;;30.60;;
19569;SDS011;9931;51.458;7.256;2024-01-25T01:27:10;35.67;;;27.00;;
19569;SDS011;9931;51.458;7.256;2024-01-25T01:29:35;30.98;;;28.05;;
19569;SDS011;9931;51.458;7.256;2024-01-25T01:32:00;27.63;;;24.97;;
19569;SDS011;9931;51.458;7.256;2024-01-25T01:34:26;29.92;;;23.98;;
19569;SDS011;9931;51.458;7.256;2024-01-25T01:36:51;32.17;;;23.35;;
19569;SDS011;9931;51.458;7.256;2024-01-25T01:39:16;31.80;;;25.93;;
19569;SDS011;9931;51.458;7.256;2024-01-25T01:41:41;33.45;;;24.80;;
19569;SDS011;9931;51.458;7.256;2024-01-25T01:44:06;29.87;;;22.30;;
19569;SDS011;9931;51.458;7.256;2024-01-25T01:46:33;31.38;;;22.63;;
19569;SDS011;9931;51.458;7.256;2024-01-25T01:48:59;47.75;;;28.27;;
19569;SDS011;9931;51.458;7.256;2024-01-25T01:51:24;34.90;;;29.42;;
19569;SDS011;9931;51.458;7.256;2024-01-25T01:53:50;36.75;;;23.98;;
19569;SDS011;9931;51.458;7.256;2024-01-25T01:56:15;73.30;;;29.48;;
19569;SDS011;9931;51.458;7.256;2024-01-25T01:58:40;34.67;;;26.10;;
19569;SDS011;9931;51.458;7.256;2024-01-25T02:01:06;32.95;;;23.25;;
19569;SDS011;9931;51.458;7.256;2024-01-25T02:03:31;33.30;;;22.50;;
19569;SDS011;9931;51.458;7.256;2024-01-25T02:05:56;37.73;;;28.30;;
19569;SDS011;9931;51.458;7.256;2024-01-25T02:08:27;37.13;;;27.20;;
19569;SDS011;9931;51.458;7.256;2024-01-25T02:10:52;29.70;;;22.35;;
19569;SDS011;9931;51.458;7.256;2024-01-25T02:13:17;35.33;;;24.17;;
19569;SDS011;9931;51.458;7.256;2024-01-25T02:15:42;51.25;;;25.50;;
19569;SDS011;9931;51.458;7.256;2024-01-25T02:18:08;36.85;;;29.17;;
19569;SDS011;9931;51.458;7.256;2024-01-25T02:20:33;62.50;;;28.08;;
19569;SDS011;9931;51.458;7.256;2024-01-25T02:22:58;30.63;;;21.42;;
19569;SDS011;9931;51.458;7.256;2024-01-25T02:25:24;34.65;;;24.45;;
19569;SDS011;9931;51.458;7.256;2024-01-25T02:27:49;111.30;;;27.17;;
19569;SDS011;9931;51.458;7.256;2024-01-25T02:30:14;60.38;;;22.45;;
19569;SDS011;9931;51.458;7.256;2024-01-25T02:32:39;37.60;;;26.77;;
19569;SDS011;9931;51.458;7.256;2024-01-25T02:35:05;29.77;;;27.13;;
19569;SDS011;9931;51.458;7.256;2024-01-25T02:37:30;31.38;;;28.08;;
19569;SDS011;9931;51.458;7.256;2024-01-25T02:39:55;31.52;;;22.00;;
19569;SDS011;9931;51.458;7.256;2024-01-25T02:42:20;27.85;;;19.55;;
19569;SDS011;9931;51.458;7.256;2024-01-25T02:44:45;31.67;;;24.48;;
19569;SDS011;9931;51.458;7.256;2024-01-25T02:47:10;36.27;;;27.00;;
19569;SDS011;9931;51.458;7.256;2024-01-25T02:49:36;31.60;;;18.30;;
19569;SDS011;9931;51.458;7.256;2024-01-25T02:52:02;29.38;;;23.80;;
19569;SDS011;9931;51.458;7.256;2024-01-25T02:54:27;25.58;;;19.67;;
19569;SDS011;9931;51.458;7.256;2024-01-25T02:56:52;45.80;;;20.53;;
19569;SDS011;9931;51.458;7.256;2024-01-25T02:59:17;27.17;;;19.10;;
19569;SDS011;9931;51.458;7.256;2024-01-25T03:01:43;30.52;;;21.45;;
19569;SDS011;9931;51.458;7.256;2024-01-25T03:04:08;31.40;;;21.65;;
19569;SDS011;9931;51.458;7.256;2024-01-25T03:06:33;35.50;;;23.55;;
19569;SDS011;9931;51.458;7.256;2024-01-25T03:08:58;29.23;;;20.67;;
19569;SDS011;9931;51.458;7.256;2024-01-25T03:11:24;27.33;;;16.80;;
19569;SDS011;9931;51.458;7.256;2024-01-25T03:13:49;63.97;;;58.70;;
19569;SDS011;9931;51.458;7.256;2024-01-25T03:16:14;31.50;;;17.73;;
19569;SDS011;9931;51.458;7.256;2024-01-25T03:18:39;25.92;;;19.42;;
19569;SDS011;9931;51.458;7.256;2024-01-25T03:21:04;37.67;;;17.45;;
19569;SDS011;9931;51.458;7.256;2024-01-25T03:23:29;74.53;;;56.85;;
19569;SDS011;9931;51.458;7.256;2024-01-25T03:25:55;27.08;;;20.27;;
19569;SDS011;9931;51.458;7.256;2024-01-25T03:28:20;29.63;;;16.95;;
19569;SDS011;9931;51.458;7.256;2024-01-25T03:30:45;24.83;;;15.23;;
19569;SDS011;9931;51.458;7.256;2024-01-25T03:33:10;33.88;;;19.98;;
19569;SDS011;9931;51.458;7.256;2024-01-25T03:35:35;24.67;;;17.60;;
19569;SDS011;9931;51.458;7.256;2024-01-25T03:38:00;45.90;;;18.23;;
19569;SDS011;9931;51.458;7.256;2024-01-25T03:40:26;21.45;;;11.68;;
19569;SDS011;9931;51.458;7.256;2024-01-25T03:42:51;51.17;;;25.10;;
19569;SDS011;9931;51.458;7.256;2024-01-25T03:45:16;48.55;;;18.05;;
19569;SDS011;9931;51.458;7.256;2024-01-25T03:47:41;62.42;;;13.95;;
19569;SDS011;9931;51.458;7.256;2024-01-25T03:50:06;25.90;;;11.00;;
19569;SDS011;9931;51.458;7.256;2024-01-25T03:52:32;28.00;;;9.63;;
19569;SDS011;9931;51.458;7.256;2024-01-25T03:54:57;22.40;;;7.85;;
19569;SDS011;9931;51.458;7.256;2024-01-25T03:57:22;26.58;;;9.82;;
19569;SDS011;9931;51.458;7.256;2024-01-25T03:59:47;18.83;;;8.32;;
19569;SDS011;9931;51.458;7.256;2024-01-25T04:02:12;50.10;;;10.03;;
19569;SDS011;9931;51.458;7.256;2024-01-25T04:04:37;18.73;;;7.45;;
19569;SDS011;9931;51.458;7.256;2024-01-25T04:07:03;24.13;;;7.18;;
19569;SDS011;9931;51.458;7.256;2024-01-25T04:09:28;19.17;;;7.30;;
19569;SDS011;9931;51.458;7.256;2024-01-25T04:11:54;16.23;;;7.47;;
19569;SDS011;9931;51.458;7.256;2024-01-25T04:14:19;70.03;;;10.43;;
19569;SDS011;9931;51.458;7.256;2024-01-25T04:16:45;26.60;;;7.80;;
19569;SDS011;9931;51.458;7.256;2024-01-25T04:19:11;21.35;;;7.28;;
19569;SDS011;9931;51.458;7.256;2024-01-25T04:21:37;19.63;;;5.85;;
19569;SDS011;9931;51.458;7.256;2024-01-25T04:24:03;18.13;;;5.93;;
19569;SDS011;9931;51.458;7.256;2024-01-25T04:26:28;17.02;;;6.60;;
19569;SDS011;9931;51.458;7.256;2024-01-25T04:28:53;16.33;;;5.63;;
19569;SDS011;9931;51.458;7.256;2024-01-25T04:31:18;11.82;;;6.40;;
19569;SDS011;9931;51.458;7.256;2024-01-25T04:33:44;13.68;;;5.85;;
19569;SDS011;9931;51.458;7.256;2024-01-25T04:36:09;25.33;;;6.00;;
19569;SDS011;9931;51.458;7.256;2024-01-25T04:38:34;21.15;;;5.88;;
19569;SDS011;9931;51.458;7.256;2024-01-25T04:40:59;24.47;;;6.70;;
19569;SDS011;9931;51.458;7.256;2024-01-25T04:43:25;21.98;;;5.82;;
19569;SDS011;9931;51.458;7.256;2024-01-25T04:45:50;18.23;;;5.43;;
19569;SDS011;9931;51.458;7.256;2024-01-25T04:48:15;18.52;;;5.10;;
19569;SDS011;9931;51.458;7.256;2024-01-25T04:50:43;19.75;;;5.63;;
19569;SDS011;9931;51.458;7.256;2024-01-25T04:53:09;14.52;;;4.70;;
19569;SDS011;9931;51.458;7.256;2024-01-25T04:55:34;25.73;;;5.83;;
19569;SDS011;9931;51.458;7.256;2024-01-25T04:57:59;20.77;;;5.35;;
19569;SDS011;9931;51.458;7.256;2024-01-25T05:00:24;24.52;;;5.38;;
19569;SDS011;9931;51.458;7.256;2024-01-25T05:02:49;17.23;;;4.93;;
19569;SDS011;9931;51.458;7.256;2024-01-25T05:05:15;25.80;;;5.28;;
19569;SDS011;9931;51.458;7.256;2024-01-25T05:07:40;61.17;;;7.72;;
19569;SDS011;9931;51.458;7.256;2024-01-25T05:10:05;47.95;;;6.72;;
19569;SDS011;9931;51.458;7.256;2024-01-25T05:12:31;5.38;;;3.95;;
19569;SDS011;9931;51.458;7.256;2024-01-25T05:14:56;21.30;;;4.65;;
19569;SDS011;9931;51.458;7.256;2024-01-25T05:17:21;54.13;;;6.55;;
19569;SDS011;9931;51.458;7.256;2024-01-25T05:19:46;21.20;;;4.65;;
19569;SDS011;9931;51.458;7.256;2024-01-25T05:22:11;18.03;;;4.30;;
19569;SDS011;9931;51.458;7.256;2024-01-25T05:24:36;17.08;;;4.68;;
19569;SDS011;9931;51.458;7.256;2024-01-25T05:27:02;19.58;;;4.88;;
19569;SDS011;9931;51.458;7.256;2024-01-25T05:29:27;48.72;;;7.40;;
19569;SDS011;9931;51.458;7.256;2024-01-25T05:31:52;17.58;;;4.00;;
19569;SDS011;9931;51.458;7.256;2024-01-25T05:34:17;51.20;;;6.07;;
19569;SDS011;9931;51.458;7.256;2024-01-25T05:36:43;18.70;;;4.30;;
19569;SDS011;9931;51.458;7.256;2024-01-25T05:39:08;20.45;;;3.90;;
19569;SDS011;9931;51.458;7.256;2024-01-25T05:41:33;18.23;;;3.40;;
19569;SDS011;9931;51.458;7.256;2024-01-25T05:43:59;20.35;;;4.30;;
19569;SDS011;9931;51.458;7.256;2024-01-25T05:46:24;25.13;;;4.25;;
19569;SDS011;9931;51.458;7.256;2024-01-25T05:48:49;6.45;;;3.22;;
19569;SDS011;9931;51.458;7.256;2024-01-25T05:51:14;9.47;;;3.67;;
19569;SDS011;9931;51.458;7.256;2024-01-25T05:53:40;23.08;;;4.72;;
19569;SDS011;9931;51.458;7.256;2024-01-25T05:56:05;22.60;;;4.13;;
19569;SDS011;9931;51.458;7.256;2024-01-25T05:58:30;29.63;;;5.18;;
19569;SDS011;9931;51.458;7.256;2024-01-25T06:00:56;21.63;;;4.28;;
19569;SDS011;9931;51.458;7.256;2024-01-25T06:03:21;6.05;;;3.30;;
19569;SDS011;9931;51.458;7.256;2024-01-25T06:05:46;24.15;;;4.68;;
19569;SDS011;9931;51.458;7.256;2024-01-25T06:08:11;10.23;;;3.30;;
19569;SDS011;9931;51.458;7.256;2024-01-25T06:10:36;23.93;;;3.77;;
19569;SDS011;9931;51.458;7.256;2024-01-25T06:13:02;17.25;;;3.60;;
19569;SDS011;9931;51.458;7.256;2024-01-25T06:15:27;23.63;;;4.47;;
19569;SDS011;9931;51.458;7.256;2024-01-25T06:17:52;73.47;;;7.45;;
19569;SDS011;9931;51.458;7.256;2024-01-25T06:20:18;16.90;;;3.95;;
19569;SDS011;9931;51.458;7.256;2024-01-25T06:22:43;17.95;;;3.35;;
19569;SDS011;9931;51.458;7.256;2024-01-25T06:25:08;28.87;;;4.17;;
19569;SDS011;9931;51.458;7.256;2024-01-25T06:27:33;19.38;;;3.55;;
19569;SDS011;9931;51.458;7.256;2024-01-25T06:29:59;19.15;;;3.03;;
19569;SDS011;9931;51.458;7.256;2024-01-25T06:32:25;27.37;;;3.73;;
19569;SDS011;9931;51.458;7.256;2024-01-25T06:34:50;23.38;;;3.67;;
19569;SDS011;9931;51.458;7.256;2024-01-25T06:37:15;22.40;;;3.47;;
19569;SDS011;9931;51.458;7.256;2024-01-25T06:39:41;18.30;;;3.33;;
19569;SDS011;9931;51.458;7.256;2024-01-25T06:42:06;19.13;;;3.22;;
19569;SDS011;9931;51.458;7.256;2024-01-25T06:44:31;16.52;;;3.17;;
19569;SDS011;9931;51.458;7.256;2024-01-25T06:46:57;19.45;;;3.33;;
19569;SDS011;9931;51.458;7.256;2024-01-25T06:49:22;23.00;;;3.30;;
19569;SDS011;9931;51.458;7.256;2024-01-25T06:51:47;30.83;;;3.93;;
19569;SDS011;9931;51.458;7.256;2024-01-25T06:54:12;14.07;;;3.25;;
19569;SDS011;9931;51.458;7.256;2024-01-25T06:56:37;24.02;;;4.05;;
19569;SDS011;9931;51.458;7.256;2024-01-25T06:59:03;17.25;;;3.22;;
19569;SDS011;9931;51.458;7.256;2024-01-25T07:01:28;5.45;;;2.30;;
19569;SDS011;9931;51.458;7.256;2024-01-25T07:03:55;18.52;;;3.20;;
19569;SDS011;9931;51.458;7.256;2024-01-25T07:06:20;6.57;;;2.57;;
19569;SDS011;9931;51.458;7.256;2024-01-25T07:08:45;6.20;;;2.30;;
19569;SDS011;9931;51.458;7.256;2024-01-25T07:11:10;24.40;;;3.47;;
19569;SDS011;9931;51.458;7.256;2024-01-25T07:13:36;18.38;;;2.80;;
19569;SDS011;9931;51.458;7.256;2024-01-25T07:16:01;21.95;;;3.08;;
19569;SDS011;9931;51.458;7.256;2024-01-25T07:18:26;19.85;;;3.15;;
19569;SDS011;9931;51.458;7.256;2024-01-25T07:20:51;16.88;;;2.95;;
19569;SDS011;9931;51.458;7.256;2024-01-25T07:23:17;17.88;;;2.92;;
19569;SDS011;9931;51.458;7.256;2024-01-25T07:25:42;19.98;;;2.95;;
19569;SDS011;9931;51.458;7.256;2024-01-25T07:28:07;15.00;;;2.57;;
19569;SDS011;9931;51.458;7.256;2024-01-25T07:30:32;30.43;;;3.63;;
19569;SDS011;9931;51.458;7.256;2024-01-25T07:32:57;8.83;;;2.30;;
19569;SDS011;9931;51.458;7.256;2024-01-25T07:35:23;16.63;;;3.28;;
19569;SDS011;9931;51.458;7.256;2024-01-25T07:37:48;50.55;;;5.38;;
19569;SDS011;9931;51.458;7.256;2024-01-25T07:40:13;18.10;;;3.42;;
19569;SDS011;9931;51.458;7.256;2024-01-25T07:42:39;27.13;;;3.07;;
19569;SDS011;9931;51.458;7.256;2024-01-25T07:45:04;11.90;;;2.38;;
19569;SDS011;9931;51.458;7.256;2024-01-25T07:47:29;20.25;;;3.05;;
19569;SDS011;9931;51.458;7.256;2024-01-25T07:49:55;16.33;;;2.67;;
19569;SDS011;9931;51.458;7.256;2024-01-25T07:52:20;17.08;;;2.75;;
19569;SDS011;9931;51.458;7.256;2024-01-25T07:54:45;17.60;;;2.65;;
19569;SDS011;9931;51.458;7.256;2024-01-25T07:57:10;17.85;;;2.92;;
19569;SDS011;9931;51.458;7.256;2024-01-25T07:59:36;17.13;;;2.60;;
19569;SDS011;9931;51.458;7.256;2024-01-25T08:02:01;15.95;;;2.50;;
19569;SDS011;9931;51.458;7.256;2024-01-25T08:04:26;16.17;;;2.58;;
19569;SDS011;9931;51.458;7.256;2024-01-25T08:06:51;15.93;;;2.50;;
19569;SDS011;9931;51.458;7.256;2024-01-25T08:09:16;7.38;;;2.08;;
19569;SDS011;9931;51.458;7.256;2024-01-25T08:11:42;29.77;;;3.55;;
19569;SDS011;9931;51.458;7.256;2024-01-25T08:14:07;20.17;;;3.17;;
19569;SDS011;9931;51.458;7.256;2024-01-25T08:16:32;18.90;;;3.27;;
19569;SDS011;9931;51.458;7.256;2024-01-25T08:19:00;11.68;;;2.88;;
19569;SDS011;9931;51.458;7.256;2024-01-25T08:21:25;23.80;;;3.42;;
19569;SDS011;9931;51.458;7.256;2024-01-25T08:23:50;12.07;;;2.57;;
19569;SDS011;9931;51.458;7.256;2024-01-25T08:26:15;22.02;;;3.17;;
19569;SDS011;9931;51.458;7.256;2024-01-25T08:28:41;18.80;;;2.92;;
19569;SDS011;9931;51.458;7.256;2024-01-25T08:31:08;31.52;;;4.32;;
19569;SDS011;9931;51.458;7.256;2024-01-25T08:33:33;19.25;;;3.88;;
19569;SDS011;9931;51.458;7.256;2024-01-25T08:35:58;19.83;;;4.32;;
19569;SDS011;9931;51.458;7.256;2024-01-25T08:38:24;13.55;;;3.67;;
19569;SDS011;9931;51.458;7.256;2024-01-25T08:40:49;26.60;;;4.28;;
19569;SDS011;9931;51.458;7.256;2024-01-25T08:43:14;19.65;;;3.38;;
19569;SDS011;9931;51.458;7.256;2024-01-25T08:45:39;25.00;;;4.60;;
19569;SDS011;9931;51.458;7.256;2024-01-25T08:48:04;19.17;;;4.47;;
19569;SDS011;9931;51.458;7.256;2024-01-25T08:50:30;28.90;;;5.53;;
19569;SDS011;9931;51.458;7.256;2024-01-25T08:52:55;9.52;;;5.30;;
19569;SDS011;9931;51.458;7.256;2024-01-25T08:55:20;24.13;;;6.22;;
19569;SDS011;9931;51.458;7.256;2024-01-25T08:57:45;64.75;;;9.32;;
19569;SDS011;9931;51.458;7.256;2024-01-25T09:00:10;17.10;;;6.20;;
19569;SDS011;9931;51.458;7.256;2024-01-25T09:02:36;23.65;;;7.75;;
19569;SDS011;9931;51.458;7.256;2024-01-25T09:05:02;16.25;;;7.25;;
19569;SDS011;9931;51.458;7.256;2024-01-25T09:07:28;24.17;;;7.28;;
19569;SDS011;9931;51.458;7.256;2024-01-25T09:09:53;24.73;;;9.18;;
19569;SDS011;9931;51.458;7.256;2024-01-25T09:12:19;19.65;;;8.50;;
19569;SDS011;9931;51.458;7.256;2024-01-25T09:14:44;24.17;;;9.43;;
19569;SDS011;9931;51.458;7.256;2024-01-25T09:17:09;25.15;;;9.85;;
19569;SDS011;9931;51.458;7.256;2024-01-25T09:19:35;20.88;;;9.52;;
19569;SDS011;9931;51.458;7.256;2024-01-25T09:22:00;24.67;;;10.55;;
19569;SDS011;9931;51.458;7.256;2024-01-25T09:24:29;22.33;;;11.02;;
19569;SDS011;9931;51.458;7.256;2024-01-25T09:26:54;23.00;;;12.70;;
19569;SDS011;9931;51.458;7.256;2024-01-25T09:29:20;25.08;;;15.30;;
19569;SDS011;9931;51.458;7.256;2024-01-25T09:31:45;25.83;;;15.10;;
19569;SDS011;9931;51.458;7.256;2024-01-25T09:34:11;25.85;;;12.50;;
19569;SDS011;9931;51.458;7.256;2024-01-25T09:36:36;21.20;;;13.90;;
19569;SDS011;9931;51.458;7.256;2024-01-25T09:39:01;24.85;;;9.70;;
19569;SDS011;9931;51.458;7.256;2024-01-25T09:41:26;19.03;;;8.07;;
19569;SDS011;9931;51.458;7.256;2024-01-25T09:43:51;22.88;;;9.15;;
19569;SDS011;9931;51.458;7.256;2024-01-25T09:46:17;23.37;;;9.57;;
19569;SDS011;9931;51.458;7.256;2024-01-25T09:48:43;22.42;;;9.38;;
19569;SDS011;9931;51.458;7.256;2024-01-25T09:51:11;11.80;;;10.00;;
19569;SDS011;9931;51.458;7.256;2024-01-25T09:53:36;21.20;;;9.05;;
19569;SDS011;9931;51.458;7.256;2024-01-25T09:56:05;17.35;;;10.80;;
19569;SDS011;9931;51.458;7.256;2024-01-25T09:58:42;23.15;;;10.45;;
19569;SDS011;9931;51.458;7.256;2024-01-25T10:01:14;24.88;;;10.57;;
19569;SDS011;9931;51.458;7.256;2024-01-25T10:03:43;19.17;;;11.43;;
19569;SDS011;9931;51.458;7.256;2024-01-25T10:06:08;27.00;;;11.25;;
19569;SDS011;9931;51.458;7.256;2024-01-25T10:08:34;24.73;;;12.70;;
19569;SDS011;9931;51.458;7.256;2024-01-25T10:10:59;23.65;;;12.98;;
19569;SDS011;9931;51.458;7.256;2024-01-25T10:13:25;27.70;;;12.07;;
19569;SDS011;9931;51.458;7.256;2024-01-25T10:15:51;22.02;;;11.63;;
19569;SDS011;9931;51.458;7.256;2024-01-25T10:18:16;16.97;;;11.23;;
19569;SDS011;9931;51.458;7.256;2024-01-25T10:20:42;86.10;;;17.80;;
19569;SDS011;9931;51.458;7.256;2024-01-25T10:23:07;17.63;;;12.65;;
19569;SDS011;9931;51.458;7.256;2024-01-25T10:25:34;27.45;;;11.27;;
19569;SDS011;9931;51.458;7.256;2024-01-25T10:27:59;39.78;;;35.60;;
19569;SDS011;9931;51.458;7.256;2024-01-25T10:30:24;48.65;;;42.17;;
19569;SDS011;9931;51.458;7.256;2024-01-25T10:32:49;47.45;;;42.33;;
19569;SDS011;9931;51.458;7.256;2024-01-25T10:35:15;13.80;;;11.38;;
19569;SDS011;9931;51.458;7.256;2024-01-25T10:37:40;61.97;;;14.68;;
19569;SDS011;9931;51.458;7.256;2024-01-25T10:40:06;22.33;;;12.40;;
19569;SDS011;9931;51.458;7.256;2024-01-25T10:42:34;30.52;;;14.70;;
19569;SDS011;9931;51.458;7.256;2024-01-25T10:45:00;25.60;;;13.95;;
19569;SDS011;9931;51.458;7.256;2024-01-25T10:47:25;24.70;;;13.80;;
19569;SDS011;9931;51.458;7.256;2024-01-25T10:49:52;45.85;;;15.15;;
19569;SDS011;9931;51.458;7.256;2024-01-25T10:52:18;60.47;;;16.00;;
19569;SDS011;9931;51.458;7.256;2024-01-25T10:54:44;47.45;;;17.20;;
19569;SDS011;9931;51.458;7.256;2024-01-25T10:57:09;32.10;;;20.13;;
19569;SDS011;9931;51.458;7.256;2024-01-25T10:59:34;28.52;;;21.50;;
19569;SDS011;9931;51.458;7.256;2024-01-25T11:02:00;31.35;;;18.65;;
19569;SDS011;9931;51.458;7.256;2024-01-25T11:04:25;26.35;;;17.75;;
19569;SDS011;9931;51.458;7.256;2024-01-25T11:06:51;45.75;;;20.95;;
19569;SDS011;9931;51.458;7.256;2024-01-25T11:09:17;108.47;;;23.43;;
19569;SDS011;9931;51.458;7.256;2024-01-25T11:11:44;28.60;;;21.30;;
19569;SDS011;9931;51.458;7.256;2024-01-25T11:14:13;26.92;;;21.85;;
19569;SDS011;9931;51.458;7.256;2024-01-25T11:16:38;42.58;;;20.92;;
19569;SDS011;9931;51.458;7.256;2024-01-25T11:19:07;27.75;;;20.73;;
19569;SDS011;9931;51.458;7.256;2024-01-25T11:24:03;34.13;;;25.27;;
19569;SDS011;9931;51.458;7.256;2024-01-25T11:26:29;49.08;;;25.08;;
19569;SDS011;9931;51.458;7.256;2024-01-25T11:28:56;50.75;;;25.02;;
19569;SDS011;9931;51.458;7.256;2024-01-25T11:31:25;36.60;;;25.55;;
19569;SDS011;9931;51.458;7.256;2024-01-25T11:33:50;31.77;;;22.43;;
19569;SDS011;9931;51.458;7.256;2024-01-25T11:36:15;31.48;;;23.02;;
19569;SDS011;9931;51.458;7.256;2024-01-25T11:38:41;58.33;;;24.88;;
19569;SDS011;9931;51.458;7.256;2024-01-25T11:41:06;36.10;;;20.87;;
19569;SDS011;9931;51.458;7.256;2024-01-25T11:43:32;34.33;;;23.95;;
19569;SDS011;9931;51.458;7.256;2024-01-25T11:45:57;37.20;;;25.20;;
19569;SDS011;9931;51.458;7.256;2024-01-25T11:48:22;42.30;;;25.57;;
19569;SDS011;9931;51.458;7.256;2024-01-25T11:50:48;42.90;;;26.98;;
19569;SDS011;9931;51.458;7.256;2024-01-25T11:53:13;40.17;;;27.25;;
19569;SDS011;9931;51.458;7.256;2024-01-25T11:55:39;38.47;;;27.45;;
19569;SDS011;9931;51.458;7.256;2024-01-25T11:58:04;57.77;;;32.03;;
19569;SDS011;9931;51.458;7.256;2024-01-25T12:00:29;39.90;;;31.67;;
19569;SDS011;9931;51.458;7.256;2024-01-25T12:02:54;43.30;;;29.02;;
19569;SDS011;9931;51.458;7.256;2024-01-25T12:05:19;50.05;;;29.17;;
19569;SDS011;9931;51.458;7.256;2024-01-25T12:07:45;92.25;;;31.48;;
19569;SDS011;9931;51.458;7.256;2024-01-25T12:10:10;37.65;;;30.55;;
19569;SDS011;9931;51.458;7.256;2024-01-25T12:12:40;37.47;;;28.20;;
19569;SDS011;9931;51.458;7.256;2024-01-25T12:15:05;39.67;;;25.40;;
19569;SDS011;9931;51.458;7.256;2024-01-25T12:17:31;47.78;;;23.75;;
19569;SDS011;9931;51.458;7.256;2024-01-25T12:19:56;28.10;;;21.38;;
19569;SDS011;9931;51.458;7.256;2024-01-25T12:22:22;33.40;;;22.23;;
19569;SDS011;9931;51.458;7.256;2024-01-25T12:24:47;27.70;;;20.63;;
19569;SDS011;9931;51.458;7.256;2024-01-25T12:27:14;28.40;;;20.50;;
19569;SDS011;9931;51.458;7.256;2024-01-25T12:29:39;43.67;;;25.27;;
19569;SDS011;9931;51.458;7.256;2024-01-25T12:32:04;31.48;;;26.85;;
19569;SDS011;9931;51.458;7.256;2024-01-25T12:34:30;34.57;;;24.80;;
19569;SDS011;9931;51.458;7.256;2024-01-25T12:36:55;34.73;;;23.87;;
19569;SDS011;9931;51.458;7.256;2024-01-25T12:39:20;40.97;;;23.73;;
19569;SDS011;9931;51.458;7.256;2024-01-25T12:41:45;39.33;;;21.40;;
19569;SDS011;9931;51.458;7.256;2024-01-25T12:44:11;37.38;;;18.77;;
19569;SDS011;9931;51.458;7.256;2024-01-25T12:46:36;35.10;;;19.33;;
19569;SDS011;9931;51.458;7.256;2024-01-25T12:49:01;30.57;;;18.07;;
19569;SDS011;9931;51.458;7.256;2024-01-25T12:51:28;37.05;;;22.05;;
19569;SDS011;9931;51.458;7.256;2024-01-25T12:53:53;41.35;;;22.20;;
19569;SDS011;9931;51.458;7.256;2024-01-25T12:56:18;36.00;;;24.10;;
19569;SDS011;9931;51.458;7.256;2024-01-25T12:58:44;39.47;;;25.63;;
19569;SDS011;9931;51.458;7.256;2024-01-25T13:01:09;48.38;;;25.10;;
19569;SDS011;9931;51.458;7.256;2024-01-25T13:03:34;32.43;;;23.60;;
19569;SDS011;9931;51.458;7.256;2024-01-25T13:05:59;29.08;;;21.67;;
19569;SDS011;9931;51.458;7.256;2024-01-25T13:08:28;46.50;;;21.23;;
19569;SDS011;9931;51.458;7.256;2024-01-25T13:10:53;35.70;;;20.43;;
19569;SDS011;9931;51.458;7.256;2024-01-25T13:13:18;30.40;;;22.88;;
19569;SDS011;9931;51.458;7.256;2024-01-25T13:15:43;32.38;;;20.75;;
19569;SDS011;9931;51.458;7.256;2024-01-25T13:18:08;38.10;;;21.40;;
19569;SDS011;9931;51.458;7.256;2024-01-25T13:20:33;42.50;;;21.00;;
19569;SDS011;9931;51.458;7.256;2024-01-25T13:22:59;44.17;;;23.73;;
19569;SDS011;9931;51.458;7.256;2024-01-25T13:25:24;42.43;;;26.40;;
19569;SDS011;9931;51.458;7.256;2024-01-25T13:27:49;85.28;;;32.50;;
19569;SDS011;9931;51.458;7.256;2024-01-25T13:30:14;46.75;;;31.55;;
19569;SDS011;9931;51.458;7.256;2024-01-25T13:32:40;54.65;;;34.20;;
19569;SDS011;9931;51.458;7.256;2024-01-25T13:35:05;48.25;;;29.63;;
19569;SDS011;9931;51.458;7.256;2024-01-25T13:37:30;51.25;;;27.83;;
19569;SDS011;9931;51.458;7.256;2024-01-25T13:39:56;43.97;;;26.58;;
19569;SDS011;9931;51.458;7.256;2024-01-25T13:42:21;40.70;;;26.38;;
19569;SDS011;9931;51.458;7.256;2024-01-25T13:44:46;41.55;;;24.05;;
19569;SDS011;9931;51.458;7.256;2024-01-25T13:47:11;43.42;;;23.52;;
19569;SDS011;9931;51.458;7.256;2024-01-25T13:49:36;36.13;;;22.48;;
19569;SDS011;9931;51.458;7.256;2024-01-25T13:52:02;32.83;;;21.63;;
19569;SDS011;9931;51.458;7.256;2024-01-25T13:54:29;25.52;;;22.83;;
19569;SDS011;9931;51.458;7.256;2024-01-25T13:56:55;34.63;;;21.30;;
19569;SDS011;9931;51.458;7.256;2024-01-25T13:59:20;38.70;;;20.80;;
19569;SDS011;9931;51.458;7.256;2024-01-25T14:01:45;30.10;;;20.17;;
19569;SDS011;9931;51.458;7.256;2024-01-25T14:04:11;39.58;;;21.23;;
19569;SDS011;9931;51.458;7.256;2024-01-25T14:06:37;34.55;;;22.75;;
19569;SDS011;9931;51.458;7.256;2024-01-25T14:09:02;26.73;;;22.73;;
19569;SDS011;9931;51.458;7.256;2024-01-25T14:11:27;41.40;;;22.35;;
19569;SDS011;9931;51.458;7.256;2024-01-25T14:13:53;34.38;;;22.05;;
19569;SDS011;9931;51.458;7.256;2024-01-25T14:16:18;37.47;;;23.10;;
19569;SDS011;9931;51.458;7.256;2024-01-25T14:18:43;34.90;;;22.45;;
19569;SDS011;9931;51.458;7.256;2024-01-25T14:21:09;37.78;;;22.67;;
19569;SDS011;9931;51.458;7.256;2024-01-25T14:23:34;25.45;;;22.30;;
19569;SDS011;9931;51.458;7.256;2024-01-25T14:25:59;33.42;;;22.50;;
19569;SDS011;9931;51.458;7.256;2024-01-25T14:28:24;35.63;;;22.43;;
19569;SDS011;9931;51.458;7.256;2024-01-25T14:30:50;36.42;;;22.17;;
19569;SDS011;9931;51.458;7.256;2024-01-25T14:33:15;40.70;;;32.42;;